Flag for USA

Past Weather in 38°43'47"N, 89°55'04"W, USA — Yesterday and Last 2 Weeks

Currently: 33 °F. Passing clouds. (Weather station: Lambert-St. Louis International Airport, USA). See more current weather

Past Weather in 38°43'47"N, 89°55'04"W — Graph

°F

38°43'47"N, 89°55'04"W Temperature Yesterday

Maximum temperature yesterday: 61 °F (at 10:51 am)
Minimum temperature yesterday: 38 °F (at 11:51 pm)
Average temperature yesterday: 54 °F

High & Low Weather Summary for the Past Weeks

 TemperatureHumidityPressure
High66 °F (Feb 23, 2:51 pm)90% (Feb 28, 2:51 am)30.61 "Hg (Feb 28, 2:51 am)
Low-3 °F (Feb 16, 6:51 am)30% (Feb 22, 3:51 pm)29.75 "Hg (Feb 24, 2:51 am)
Average31 °F67%30.17 "Hg
* Reported Feb 14 6:51 am — Mar 1 6:51 am, 38°43'47"N, 89°55'04"W. Weather by CustomWeather, © 2021

Note: Actual official high and low records may vary slightly from our data, if they occured in-between our weather recording intervals... More about our weather records

38°43'47"N, 89°55'04"W Weather History for the Previous 24 Hours

Scroll right to see more
 ConditionsComfort  
Time TempWeatherWind HumidityBarometerVisibility
6:51 am
Mon, Mar 1
30 °FPassing clouds.5 mph79%30.25 "Hg10 mi
5:51 am30 °FClear.7 mph82%30.24 "Hg10 mi
4:51 am31 °FClear.5 mph79%30.22 "Hg10 mi
3:51 am32 °FPassing clouds.3 mph75%30.19 "Hg10 mi
2:51 am34 °FPassing clouds.8 mph73%30.19 "Hg10 mi
1:51 am35 °FPassing clouds.9 mph75%30.18 "Hg10 mi
12:51 am36 °FPassing clouds.12 mph79%30.14 "Hg10 mi
11:51 pm
Sun, Feb 28
38 °FPassing clouds.9 mph76%30.10 "Hg10 mi
10:51 pm41 °FPassing clouds.15 mph70%30.08 "Hg10 mi
9:51 pm42 °FPassing clouds.8 mph68%30.06 "Hg10 mi
8:51 pm44 °FPassing clouds.10 mph71%30.03 "Hg10 mi
7:51 pm46 °FPassing clouds.14 mph66%30.00 "Hg10 mi
6:51 pm48 °FPassing clouds.14 mph63%29.95 "Hg10 mi
5:51 pm51 °FPartly sunny.16 mph56%29.91 "Hg10 mi
4:51 pm55 °FPartly sunny.8 mph69%29.89 "Hg10 mi
3:51 pm57 °FOvercast.12 mph78%29.85 "Hg10 mi
2:51 pm58 °FOvercast.13 mph81%29.84 "Hg10 mi
2:15 pm59 °FLight rain. Overcast.13 mph87%29.83 "Hg10 mi
1:17 pm59 °FLight rain. More clouds than sun.6 mph87%29.82 "Hg10 mi
12:51 pm58 °FLow clouds.6 mph90%29.82 "Hg10 mi
11:51 am60 °FLow clouds.5 mph90%29.83 "Hg10 mi
10:51 am61 °FMostly cloudy.8 mph90%29.83 "Hg10 mi
10:12 am60 °FDrizzle. Fog.8 mph90%29.84 "Hg6 mi
9:55 am59 °FDrizzle. Fog.9 mph90%29.83 "Hg4 mi
8:51 am59 °FMostly cloudy.7 mph90%29.82 "Hg9 mi
8:06 am57 °FBroken clouds.5 mph90%29.82 "Hg9 mi
Weather by CustomWeather, © 2021

See weather overview